Time;durP1;ratioP1;P1;durP2;ratioP2;P2;SDS_P1;SDS_P2;PMS_P1;PMS_P2;Temp;Humidity;BMP_temperature;BMP_pressure;BME280_temperature;BME280_humidity;BME280_pressure;Samples;Min_cycle;Max_cycle;Signal;HPM_P1;HPM_P2
2021/08/13 00:01:07;;;;;;;1.23;1.00;;;;;;;;;;5010482;28;20112;-56
2021/08/13 00:03:34;;;;;;;1.60;0.80;;;;;;;;;;5010047;28;20041;-55
2021/08/13 00:06:01;;;;;;;1.75;0.88;;;;;;;;;;5012387;28;20104;-56
2021/08/13 00:08:28;;;;;;;2.45;0.90;;;;;;;;;;5010504;28;20061;-55
2021/08/13 00:10:56;;;;;;;0.93;0.90;;;;;;;;;;4998821;28;20030;-55
2021/08/13 00:13:23;;;;;;;2.10;0.95;;;;;;;;;;5008252;28;20046;-55
2021/08/13 00:15:50;;;;;;;2.85;0.85;;;;;;;;;;5009173;28;20084;-55
2021/08/13 00:18:16;;;;;;;1.00;0.90;;;;;;;;;;5010003;28;20048;-55
2021/08/13 00:20:43;;;;;;;4.93;1.00;;;;;;;;;;5008917;28;20057;-56
2021/08/13 00:23:10;;;;;;;3.15;0.90;;;;;;;;;;5008613;28;20129;-56
2021/08/13 00:25:37;;;;;;;0.90;0.90;;;;;;;;;;5005762;28;20038;-56
2021/08/13 00:28:04;;;;;;;3.28;1.10;;;;;;;;;;5008999;28;20548;-55
2021/08/13 00:30:31;;;;;;;1.35;1.20;;;;;;;;;;5008305;28;20517;-56
2021/08/13 00:32:58;;;;;;;0.90;0.90;;;;;;;;;;5009238;28;20033;-56
2021/08/13 00:35:24;;;;;;;1.48;1.38;;;;;;;;;;5008822;28;20370;-56
2021/08/13 00:37:51;;;;;;;2.35;1.00;;;;;;;;;;5001686;28;20058;-55
2021/08/13 00:40:18;;;;;;;1.73;1.00;;;;;;;;;;5001449;28;20038;-55
2021/08/13 00:42:44;;;;;;;2.65;1.10;;;;;;;;;;5011102;28;20029;-56
2021/08/13 00:45:11;;;;;;;2.03;0.90;;;;;;;;;;5009232;28;20054;-56
2021/08/13 00:47:38;;;;;;;0.90;0.90;;;;;;;;;;5010735;28;20121;-56
2021/08/13 00:50:05;;;;;;;3.70;0.90;;;;;;;;;;5010166;28;20465;-56
2021/08/13 00:52:32;;;;;;;3.05;1.10;;;;;;;;;;5007811;28;20041;-55
2021/08/13 00:54:59;;;;;;;1.42;1.30;;;;;;;;;;4997890;28;20444;-55
2021/08/13 00:57:25;;;;;;;0.93;0.93;;;;;;;;;;5007985;28;20529;-56
2021/08/13 00:59:52;;;;;;;1.75;0.90;;;;;;;;;;5007112;28;20046;-55
2021/08/13 01:02:19;;;;;;;1.25;1.15;;;;;;;;;;5011235;28;20402;-56
2021/08/13 01:04:46;;;;;;;1.25;1.08;;;;;;;;;;5009584;28;20032;-56
2021/08/13 01:07:13;;;;;;;2.90;0.90;;;;;;;;;;5008435;28;20034;-54
2021/08/13 01:09:40;;;;;;;1.20;1.00;;;;;;;;;;5009082;28;20042;-55
2021/08/13 01:12:09;;;;;;;1.30;1.10;;;;;;;;;;5009181;28;21501;-56
2021/08/13 01:15:12;;;;;;;2.88;1.38;;;;;;;;;;5009372;28;20434;-55
2021/08/13 01:17:57;;;;;;;2.35;1.27;;;;;;;;;;5006300;28;20046;-56
2021/08/13 01:20:23;;;;;;;3.05;1.30;;;;;;;;;;5006024;28;20053;-56
2021/08/13 01:22:59;;;;;;;1.85;1.10;;;;;;;;;;5008611;28;20048;-56
2021/08/13 01:25:31;;;;;;;3.10;1.40;;;;;;;;;;5007702;28;20049;-56
2021/08/13 01:27:59;;;;;;;1.17;1.08;;;;;;;;;;5005797;28;20034;-56
2021/08/13 01:30:26;;;;;;;1.08;0.90;;;;;;;;;;5006679;28;20092;-56
2021/08/13 01:32:53;;;;;;;2.63;1.00;;;;;;;;;;5007829;28;20077;-54
2021/08/13 01:35:23;;;;;;;2.20;1.02;;;;;;;;;;5006843;28;20037;-56
2021/08/13 01:38:02;;;;;;;0.90;0.90;;;;;;;;;;5007191;28;20136;-56
2021/08/13 01:40:30;;;;;;;1.75;0.90;;;;;;;;;;4997834;28;20076;-55
2021/08/13 01:42:57;;;;;;;1.55;1.00;;;;;;;;;;5008250;28;20048;-55
2021/08/13 01:45:29;;;;;;;1.33;1.23;;;;;;;;;;5005856;28;20046;-56
2021/08/13 01:47:57;;;;;;;2.17;1.02;;;;;;;;;;4991313;28;20064;-56
2021/08/13 01:50:24;;;;;;;2.35;1.05;;;;;;;;;;5007956;28;20096;-56
2021/08/13 01:52:52;;;;;;;1.63;1.00;;;;;;;;;;5007910;28;20149;-56
2021/08/13 01:55:20;;;;;;;1.10;1.10;;;;;;;;;;5007612;28;20038;-56
2021/08/13 01:57:47;;;;;;;1.58;0.93;;;;;;;;;;5008245;28;20049;-56
2021/08/13 02:00:15;;;;;;;1.55;1.48;;;;;;;;;;5007577;28;20665;-56
2021/08/13 02:02:43;;;;;;;1.08;1.00;;;;;;;;;;5009872;28;20132;-55
2021/08/13 02:05:10;;;;;;;1.25;1.00;;;;;;;;;;5007161;28;20033;-55
2021/08/13 02:07:39;;;;;;;1.02;1.00;;;;;;;;;;5007587;28;20038;-55
2021/08/13 02:10:07;;;;;;;5.82;1.75;;;;;;;;;;5003517;28;20062;-55
2021/08/13 02:12:34;;;;;;;2.97;1.00;;;;;;;;;;5007391;28;20177;-55
2021/08/13 02:15:01;;;;;;;1.17;1.10;;;;;;;;;;5009016;28;20034;-56
2021/08/13 02:17:29;;;;;;;2.08;1.10;;;;;;;;;;5005662;28;20386;-55
2021/08/13 02:20:05;;;;;;;2.25;1.23;;;;;;;;;;4999755;28;20030;-55
2021/08/13 02:22:32;;;;;;;1.95;1.27;;;;;;;;;;5008206;28;20042;-55
2021/08/13 02:24:58;;;;;;;2.25;1.00;;;;;;;;;;5006589;28;20125;-56
2021/08/13 02:27:26;;;;;;;1.20;1.20;;;;;;;;;;5009543;28;20609;-55
2021/08/13 02:29:53;;;;;;;1.20;1.10;;;;;;;;;;5009711;28;20042;-55
2021/08/13 02:32:21;;;;;;;1.00;1.00;;;;;;;;;;5006982;28;20383;-55
2021/08/13 02:34:48;;;;;;;3.58;1.00;;;;;;;;;;5009732;28;20045;-55
2021/08/13 02:37:15;;;;;;;2.05;1.30;;;;;;;;;;5008198;28;20041;-56
2021/08/13 02:39:47;;;;;;;2.67;1.35;;;;;;;;;;4994329;28;20073;-54
2021/08/13 02:42:16;;;;;;;1.70;1.00;;;;;;;;;;5006236;28;20042;-55
2021/08/13 02:44:46;;;;;;;1.63;1.00;;;;;;;;;;5007831;28;20303;-55
2021/08/13 02:47:12;;;;;;;1.20;1.20;;;;;;;;;;5001669;28;20042;-54
2021/08/13 02:49:50;;;;;;;3.13;1.10;;;;;;;;;;5000932;28;20084;-54
2021/08/13 02:52:19;;;;;;;1.05;1.05;;;;;;;;;;5004245;28;20038;-54
2021/08/13 02:54:47;;;;;;;3.45;1.20;;;;;;;;;;5001580;28;20070;-53
2021/08/13 02:57:15;;;;;;;1.42;1.33;;;;;;;;;;5008377;28;20041;-56
2021/08/13 02:59:44;;;;;;;2.13;1.40;;;;;;;;;;5000971;28;20033;-56
2021/08/13 03:02:11;;;;;;;2.25;1.27;;;;;;;;;;5008048;28;20497;-55
2021/08/13 03:04:39;;;;;;;1.98;1.23;;;;;;;;;;5010464;28;20047;-55
2021/08/13 03:07:06;;;;;;;1.55;1.45;;;;;;;;;;5012406;28;20425;-56
2021/08/13 03:09:33;;;;;;;3.25;1.30;;;;;;;;;;5011143;28;20053;-55
2021/08/13 03:12:01;;;;;;;1.52;1.10;;;;;;;;;;5011935;28;20042;-56
2021/08/13 03:14:28;;;;;;;1.35;1.20;;;;;;;;;;5007922;28;20088;-56
2021/08/13 03:16:56;;;;;;;2.40;1.10;;;;;;;;;;5007404;28;20104;-56
2021/08/13 03:19:23;;;;;;;3.83;1.20;;;;;;;;;;5009490;28;20030;-55
2021/08/13 03:21:51;;;;;;;1.00;1.00;;;;;;;;;;5010457;28;20049;-56
2021/08/13 03:24:18;;;;;;;1.17;1.08;;;;;;;;;;5009781;28;20092;-55
2021/08/13 03:26:44;;;;;;;2.08;0.90;;;;;;;;;;5005290;28;20105;-55
2021/08/13 03:29:11;;;;;;;1.48;1.10;;;;;;;;;;5006807;28;20072;-55
2021/08/13 03:31:45;;;;;;;1.98;1.00;;;;;;;;;;5005939;28;20052;-56
2021/08/13 03:34:16;;;;;;;1.85;1.10;;;;;;;;;;5005616;28;20449;-55
2021/08/13 03:36:43;;;;;;;1.17;0.88;;;;;;;;;;5019506;28;20053;-55
2021/08/13 03:39:10;;;;;;;2.17;1.05;;;;;;;;;;5011450;28;20038;-54
2021/08/13 03:41:37;;;;;;;4.43;1.70;;;;;;;;;;5009479;28;20211;-55
2021/08/13 03:44:04;;;;;;;2.17;1.30;;;;;;;;;;4998405;28;20064;-56
2021/08/13 03:46:31;;;;;;;3.08;1.10;;;;;;;;;;5007715;28;20065;-55
2021/08/13 03:48:58;;;;;;;4.22;1.20;;;;;;;;;;5000872;28;20093;-56
2021/08/13 03:51:24;;;;;;;1.30;1.20;;;;;;;;;;5003455;28;20038;-56
2021/08/13 03:53:51;;;;;;;2.33;1.20;;;;;;;;;;5007411;28;20664;-55
2021/08/13 03:56:18;;;;;;;3.75;1.20;;;;;;;;;;5008289;28;20470;-56
2021/08/13 03:58:44;;;;;;;2.17;1.40;;;;;;;;;;5009417;28;20038;-55
2021/08/13 04:01:11;;;;;;;1.58;1.48;;;;;;;;;;5003513;28;20038;-55
2021/08/13 04:03:39;;;;;;;2.80;2.45;;;;;;;;;;5002229;28;20062;-56
2021/08/13 04:06:05;;;;;;;1.70;1.58;;;;;;;;;;5003306;28;20400;-56
2021/08/13 04:08:32;;;;;;;1.25;1.20;;;;;;;;;;5012780;28;20045;-54
2021/08/13 04:10:59;;;;;;;1.90;1.40;;;;;;;;;;5008364;28;20042;-55
2021/08/13 04:13:26;;;;;;;1.70;1.60;;;;;;;;;;5007731;28;20126;-54
2021/08/13 04:15:52;;;;;;;1.60;1.50;;;;;;;;;;5009339;28;20042;-55
2021/08/13 04:18:19;;;;;;;2.22;1.70;;;;;;;;;;5004864;28;21176;-56
2021/08/13 04:20:46;;;;;;;2.33;1.60;;;;;;;;;;5008149;28;20064;-56
2021/08/13 04:23:13;;;;;;;1.27;1.27;;;;;;;;;;5004429;28;20069;-56
2021/08/13 04:25:39;;;;;;;1.55;1.45;;;;;;;;;;4997567;28;20072;-55
2021/08/13 04:28:06;;;;;;;1.88;1.33;;;;;;;;;;5000150;28;20423;-55
2021/08/13 04:30:33;;;;;;;1.30;1.20;;;;;;;;;;5007451;28;20061;-55
2021/08/13 04:33:05;;;;;;;3.92;1.40;;;;;;;;;;5003476;28;20076;-55
2021/08/13 04:35:32;;;;;;;2.35;1.30;;;;;;;;;;5009847;28;20112;-55
2021/08/13 04:37:58;;;;;;;1.80;1.30;;;;;;;;;;5009853;28;20057;-55
2021/08/13 04:40:25;;;;;;;2.45;1.70;;;;;;;;;;5010483;28;20034;-54
2021/08/13 04:42:51;;;;;;;1.65;1.58;;;;;;;;;;5008274;28;20046;-56
2021/08/13 04:45:19;;;;;;;2.22;1.60;;;;;;;;;;5007845;28;20030;-56
2021/08/13 04:47:46;;;;;;;6.10;2.17;;;;;;;;;;5008983;28;20438;-55
2021/08/13 04:50:12;;;;;;;2.80;1.52;;;;;;;;;;5001460;28;20052;-55
2021/08/13 04:52:46;;;;;;;1.40;1.27;;;;;;;;;;5003143;28;20050;-55
2021/08/13 04:55:17;;;;;;;2.45;1.88;;;;;;;;;;5009518;28;20052;-53
2021/08/13 04:57:43;;;;;;;1.52;1.42;;;;;;;;;;5008662;28;20108;-55
2021/08/13 05:00:10;;;;;;;2.67;1.60;;;;;;;;;;5001096;28;20109;-56
2021/08/13 05:02:37;;;;;;;2.63;1.48;;;;;;;;;;5007428;28;20497;-55
2021/08/13 05:05:04;;;;;;;2.13;1.15;;;;;;;;;;5005616;28;20048;-55
2021/08/13 05:07:31;;;;;;;6.50;1.80;;;;;;;;;;5004738;28;20538;-56
2021/08/13 05:09:59;;;;;;;2.20;1.60;;;;;;;;;;5007593;28;20046;-55
2021/08/13 05:12:25;;;;;;;1.83;1.70;;;;;;;;;;4999291;28;20042;-56
2021/08/13 05:14:52;;;;;;;2.75;1.70;;;;;;;;;;5004438;28;20046;-56
2021/08/13 05:17:19;;;;;;;1.63;1.48;;;;;;;;;;5009548;28;20034;-55
2021/08/13 05:19:46;;;;;;;1.20;1.10;;;;;;;;;;5003364;28;20485;-55
2021/08/13 05:22:12;;;;;;;1.73;1.70;;;;;;;;;;5005844;28;20099;-56
2021/08/13 05:24:39;;;;;;;3.38;1.40;;;;;;;;;;5009680;28;20042;-56
2021/08/13 05:27:06;;;;;;;3.10;1.83;;;;;;;;;;5009655;28;20038;-55
2021/08/13 05:29:33;;;;;;;1.58;1.48;;;;;;;;;;4995219;28;20129;-55
2021/08/13 05:31:59;;;;;;;4.88;1.15;;;;;;;;;;5003011;28;20043;-56
2021/08/13 05:34:26;;;;;;;3.33;2.00;;;;;;;;;;5006128;28;20057;-55
2021/08/13 05:36:53;;;;;;;2.35;1.35;;;;;;;;;;5009950;28;20096;-55
2021/08/13 05:39:20;;;;;;;1.73;1.38;;;;;;;;;;5008528;28;20084;-55
2021/08/13 05:41:46;;;;;;;2.03;1.92;;;;;;;;;;5009653;28;20038;-55
2021/08/13 05:44:13;;;;;;;5.47;1.88;;;;;;;;;;5003399;28;20034;-55
2021/08/13 05:46:43;;;;;;;2.13;2.03;;;;;;;;;;5012165;28;20030;-55
2021/08/13 05:49:10;;;;;;;2.15;1.95;;;;;;;;;;5007728;28;20029;-56
2021/08/13 05:51:37;;;;;;;2.42;1.30;;;;;;;;;;5008820;28;20064;-54
2021/08/13 05:54:05;;;;;;;3.60;1.20;;;;;;;;;;5008669;28;20699;-55
2021/08/13 05:56:32;;;;;;;3.53;1.27;;;;;;;;;;5008051;28;20061;-56
2021/08/13 05:59:02;;;;;;;1.90;1.63;;;;;;;;;;5007861;28;20129;-55
2021/08/13 06:01:29;;;;;;;2.47;1.10;;;;;;;;;;4996587;28;20145;-56
2021/08/13 06:03:56;;;;;;;3.13;1.40;;;;;;;;;;5008406;28;20485;-55
2021/08/13 06:06:23;;;;;;;4.97;2.28;;;;;;;;;;5007643;28;20073;-55
2021/08/13 06:08:49;;;;;;;1.48;1.35;;;;;;;;;;4997559;28;20050;-56
2021/08/13 06:11:16;;;;;;;1.10;1.10;;;;;;;;;;5002364;28;20049;-56
2021/08/13 06:13:43;;;;;;;2.15;1.15;;;;;;;;;;4992229;28;20046;-56
2021/08/13 06:16:10;;;;;;;1.67;1.27;;;;;;;;;;5008087;28;20053;-57
2021/08/13 06:18:38;;;;;;;4.00;1.33;;;;;;;;;;4999348;28;20128;-56
2021/08/13 06:21:04;;;;;;;2.25;1.20;;;;;;;;;;5001443;28;20557;-56
2021/08/13 06:23:31;;;;;;;2.28;1.33;;;;;;;;;;5003239;28;20034;-53
2021/08/13 06:25:58;;;;;;;1.88;1.35;;;;;;;;;;4991980;28;20042;-56
2021/08/13 06:28:25;;;;;;;6.97;1.42;;;;;;;;;;5008290;28;20048;-52
2021/08/13 06:30:51;;;;;;;3.88;1.42;;;;;;;;;;5009233;28;20486;-55
2021/08/13 06:33:18;;;;;;;2.72;1.17;;;;;;;;;;5008348;28;20181;-58
2021/08/13 06:35:45;;;;;;;3.63;1.30;;;;;;;;;;5006753;28;20045;-58
2021/08/13 06:38:12;;;;;;;4.35;1.52;;;;;;;;;;5010212;28;20395;-57
2021/08/13 06:40:39;;;;;;;3.42;1.30;;;;;;;;;;5012046;28;20056;-58
2021/08/13 06:43:05;;;;;;;8.25;1.95;;;;;;;;;;5009717;28;20042;-57
2021/08/13 06:45:32;;;;;;;1.88;1.30;;;;;;;;;;5013835;28;20041;-57
2021/08/13 06:48:00;;;;;;;3.42;1.35;;;;;;;;;;5005427;28;20046;-58
2021/08/13 06:50:26;;;;;;;3.42;1.45;;;;;;;;;;5005998;28;20495;-58
2021/08/13 06:52:53;;;;;;;4.53;1.92;;;;;;;;;;5004054;28;20395;-57
2021/08/13 06:55:21;;;;;;;3.33;1.42;;;;;;;;;;5003152;28;20037;-57
2021/08/13 06:57:48;;;;;;;5.13;1.30;;;;;;;;;;5013786;28;20061;-58
2021/08/13 07:00:15;;;;;;;3.83;1.55;;;;;;;;;;5009234;28;20046;-57
2021/08/13 07:02:46;;;;;;;1.65;1.10;;;;;;;;;;5001509;28;20034;-57
2021/08/13 07:05:15;;;;;;;;;;;;;;;;;;5007580;28;20049;-57
2021/08/13 07:07:41;;;;;;;5.45;1.10;;;;;;;;;;5011985;28;19922;-57
2021/08/13 07:10:10;;;;;;;1.98;1.08;;;;;;;;;;4994922;28;20050;-58
2021/08/13 07:12:37;;;;;;;2.45;1.10;;;;;;;;;;5009551;28;20046;-57
2021/08/13 07:15:04;;;;;;;1.15;1.00;;;;;;;;;;5011156;28;20453;-58
2021/08/13 07:17:32;;;;;;;1.33;1.00;;;;;;;;;;5013598;28;20053;-57
2021/08/13 07:20:04;;;;;;;2.45;0.90;;;;;;;;;;5010961;28;20125;-58
2021/08/13 07:22:32;;;;;;;2.13;1.00;;;;;;;;;;5006171;28;20112;-57
2021/08/13 07:24:59;;;;;;;1.10;1.10;;;;;;;;;;5012254;28;20037;-58
2021/08/13 07:27:29;;;;;;;1.20;0.98;;;;;;;;;;5011343;28;20739;-58
2021/08/13 07:29:56;;;;;;;1.55;1.05;;;;;;;;;;5007855;28;20097;-58
2021/08/13 07:32:23;;;;;;;1.08;0.82;;;;;;;;;;5007268;28;20053;-58
2021/08/13 07:34:49;;;;;;;1.42;1.00;;;;;;;;;;4996042;28;20053;-58
2021/08/13 07:37:19;;;;;;;3.20;1.25;;;;;;;;;;5012439;28;20422;-58
2021/08/13 07:39:48;;;;;;;1.95;1.77;;;;;;;;;;5011555;28;20042;-58
2021/08/13 07:42:15;;;;;;;4.40;0.90;;;;;;;;;;4994057;28;20070;-58
2021/08/13 07:44:42;;;;;;;1.10;1.00;;;;;;;;;;5006593;28;20069;-58
2021/08/13 07:47:10;;;;;;;3.13;1.63;;;;;;;;;;4996499;28;20038;-58
2021/08/13 07:49:37;;;;;;;1.17;1.15;;;;;;;;;;5002700;28;20042;-58
2021/08/13 07:52:04;;;;;;;1.55;0.80;;;;;;;;;;5011415;28;20124;-58
2021/08/13 07:54:31;;;;;;;3.78;1.33;;;;;;;;;;5011632;28;20042;-58
2021/08/13 07:56:57;;;;;;;2.08;1.42;;;;;;;;;;5009828;28;20092;-58
2021/08/13 07:59:24;;;;;;;2.40;0.90;;;;;;;;;;5009696;28;20029;-58
2021/08/13 08:01:51;;;;;;;1.33;1.00;;;;;;;;;;4999551;28;20034;-58
2021/08/13 08:04:18;;;;;;;1.92;1.00;;;;;;;;;;5007033;28;20136;-58
2021/08/13 08:06:44;;;;;;;0.90;0.90;;;;;;;;;;5009442;28;20422;-58
2021/08/13 08:09:11;;;;;;;2.75;1.05;;;;;;;;;;5007015;28;20062;-58
2021/08/13 08:11:38;;;;;;;0.80;0.80;;;;;;;;;;4998431;28;20046;-58
2021/08/13 08:14:05;;;;;;;1.00;0.90;;;;;;;;;;4998871;28;20482;-58
2021/08/13 08:16:32;;;;;;;0.88;0.82;;;;;;;;;;5006771;28;20475;-58
2021/08/13 08:18:59;;;;;;;3.60;1.15;;;;;;;;;;5009549;28;20060;-59
2021/08/13 08:21:26;;;;;;;1.95;0.90;;;;;;;;;;5005637;28;20042;-58
2021/08/13 08:23:53;;;;;;;2.45;0.80;;;;;;;;;;5009697;28;20030;-59
2021/08/13 08:26:19;;;;;;;1.55;0.80;;;;;;;;;;5002084;28;20426;-56
2021/08/13 08:28:46;;;;;;;0.80;0.80;;;;;;;;;;5008102;28;20100;-55
2021/08/13 08:31:13;;;;;;;1.58;0.88;;;;;;;;;;5016814;28;20064;-55
2021/08/13 08:33:40;;;;;;;0.88;0.80;;;;;;;;;;5011974;28;20065;-55
2021/08/13 08:36:06;;;;;;;2.05;0.93;;;;;;;;;;5004428;28;20049;-55
2021/08/13 08:38:34;;;;;;;0.80;0.80;;;;;;;;;;5005257;28;20584;-55
2021/08/13 08:41:04;;;;;;;1.38;0.80;;;;;;;;;;5009126;28;20037;-54
2021/08/13 08:43:31;;;;;;;1.85;0.93;;;;;;;;;;5008755;28;20104;-55
2021/08/13 08:45:59;;;;;;;1.60;0.70;;;;;;;;;;5010882;28;20057;-55
2021/08/13 08:48:36;;;;;;;2.22;0.90;;;;;;;;;;5009886;28;20142;-55
2021/08/13 08:51:03;;;;;;;2.00;0.80;;;;;;;;;;4993429;28;20065;-55
2021/08/13 08:53:31;;;;;;;3.63;0.80;;;;;;;;;;5007002;28;20053;-55
2021/08/13 08:55:58;;;;;;;3.42;0.77;;;;;;;;;;5008839;28;20065;-55
2021/08/13 08:58:25;;;;;;;1.55;0.80;;;;;;;;;;4998570;28;20129;-55
2021/08/13 09:00:52;;;;;;;5.90;0.80;;;;;;;;;;5005756;28;20038;-55
2021/08/13 09:03:20;;;;;;;2.85;1.00;;;;;;;;;;5009045;28;20069;-55
2021/08/13 09:05:48;;;;;;;5.78;0.80;;;;;;;;;;5005089;28;20042;-55
2021/08/13 09:08:15;;;;;;;3.15;0.90;;;;;;;;;;5009683;28;20554;-54
2021/08/13 09:10:42;;;;;;;3.70;1.05;;;;;;;;;;5008308;28;20483;-55
2021/08/13 09:13:10;;;;;;;2.45;0.60;;;;;;;;;;5009479;28;20042;-56
2021/08/13 09:15:38;;;;;;;2.83;0.70;;;;;;;;;;5007458;28;20055;-54
2021/08/13 09:18:18;;;;;;;1.20;0.80;;;;;;;;;;5001503;28;20089;-56
2021/08/13 09:20:46;;;;;;;9.50;1.55;;;;;;;;;;5007470;28;20050;-56
2021/08/13 09:23:31;;;;;;;2.45;0.73;;;;;;;;;;4999604;28;20470;-54
2021/08/13 09:25:58;;;;;;;2.22;0.70;;;;;;;;;;5003359;28;20631;-55
2021/08/13 09:28:43;;;;;;;0.70;0.70;;;;;;;;;;4998084;28;20037;-55
2021/08/13 09:31:16;;;;;;;0.63;0.63;;;;;;;;;;5009246;28;20050;-56
2021/08/13 09:33:45;;;;;;;0.98;0.70;;;;;;;;;;5003856;28;20151;-60
2021/08/13 09:36:12;;;;;;;6.63;0.68;;;;;;;;;;4996221;28;20029;-60
2021/08/13 09:38:39;;;;;;;1.30;0.82;;;;;;;;;;5004701;28;20121;-60
2021/08/13 09:41:19;;;;;;;2.90;0.70;;;;;;;;;;5003722;28;20026;-60
2021/08/13 09:44:01;;;;;;;1.02;0.80;;;;;;;;;;4992636;28;20398;-60
2021/08/13 09:46:28;;;;;;;;;;;;;;;;;;4998692;28;20030;-61
2021/08/13 09:49:18;;;;;;;2.42;0.70;;;;;;;;;;5001163;28;19928;-60
2021/08/13 09:51:45;;;;;;;3.13;0.73;;;;;;;;;;4990825;28;20069;-61
2021/08/13 09:54:11;;;;;;;1.05;0.77;;;;;;;;;;5010081;28;20041;-60
2021/08/13 09:56:39;;;;;;;0.65;0.65;;;;;;;;;;5008036;28;20107;-61
2021/08/13 09:59:16;;;;;;;1.38;0.60;;;;;;;;;;5007823;28;20037;-60
2021/08/13 10:01:44;;;;;;;1.13;0.70;;;;;;;;;;5003040;28;20038;-61
2021/08/13 10:04:12;;;;;;;1.20;0.57;;;;;;;;;;5003843;28;20095;-61
2021/08/13 10:06:39;;;;;;;3.35;0.60;;;;;;;;;;5005435;28;20057;-61
2021/08/13 10:09:06;;;;;;;3.25;0.60;;;;;;;;;;5007100;28;20042;-61
2021/08/13 10:11:34;;;;;;;0.50;0.50;;;;;;;;;;5007605;28;20467;-61
2021/08/13 10:14:02;;;;;;;0.95;0.60;;;;;;;;;;5005726;28;20051;-61
2021/08/13 10:16:29;;;;;;;0.98;0.60;;;;;;;;;;5006774;28;20809;-61
2021/08/13 10:18:56;;;;;;;0.70;0.60;;;;;;;;;;5007204;28;20033;-61
2021/08/13 10:21:23;;;;;;;0.50;0.50;;;;;;;;;;5003158;28;20093;-61
2021/08/13 10:23:53;;;;;;;4.50;0.50;;;;;;;;;;5007038;28;20045;-61
2021/08/13 10:26:20;;;;;;;0.55;0.55;;;;;;;;;;5005703;28;20053;-61
2021/08/13 10:28:48;;;;;;;1.02;0.50;;;;;;;;;;5004974;28;20053;-61
2021/08/13 10:31:19;;;;;;;0.77;0.50;;;;;;;;;;5006958;28;20038;-63
2021/08/13 10:33:48;;;;;;;1.13;0.60;;;;;;;;;;5009490;28;20053;-60
2021/08/13 10:36:17;;;;;;;0.50;0.50;;;;;;;;;;5005924;28;20045;-60
2021/08/13 10:38:47;;;;;;;1.85;0.60;;;;;;;;;;5004395;28;20054;-61
2021/08/13 10:41:14;;;;;;;0.45;0.45;;;;;;;;;;5001119;28;20485;-60
2021/08/13 10:43:42;;;;;;;0.60;0.60;;;;;;;;;;5012482;28;20026;-61
2021/08/13 10:46:11;;;;;;;0.85;0.68;;;;;;;;;;5006530;28;20553;-61
2021/08/13 10:48:41;;;;;;;0.82;0.50;;;;;;;;;;5002459;28;20569;-60
2021/08/13 10:51:08;;;;;;;1.95;0.45;;;;;;;;;;5004012;28;20097;-60
2021/08/13 10:53:36;;;;;;;0.50;0.50;;;;;;;;;;4993263;28;20050;-60
2021/08/13 10:56:04;;;;;;;0.47;0.47;;;;;;;;;;5008521;28;20029;-61
2021/08/13 10:58:41;;;;;;;0.95;0.50;;;;;;;;;;5005186;28;20042;-61
2021/08/13 11:01:08;;;;;;;1.38;0.50;;;;;;;;;;4991218;28;20046;-61
2021/08/13 11:03:36;;;;;;;2.17;0.50;;;;;;;;;;5001851;28;20531;-61
2021/08/13 11:06:03;;;;;;;0.50;0.50;;;;;;;;;;5003973;28;20058;-60
2021/08/13 11:08:39;;;;;;;1.73;0.50;;;;;;;;;;5006214;28;20498;-60
2021/08/13 11:11:07;;;;;;;1.67;0.45;;;;;;;;;;5005666;28;20048;-60
2021/08/13 11:13:36;;;;;;;1.20;0.45;;;;;;;;;;5014530;28;20038;-60
2021/08/13 11:16:23;;;;;;;11.25;0.82;;;;;;;;;;5009173;28;20045;-60
2021/08/13 11:18:59;;;;;;;4.10;0.77;;;;;;;;;;5004727;28;20125;-61
2021/08/13 11:21:31;;;;;;;0.60;0.40;;;;;;;;;;4993480;28;20375;-60
2021/08/13 11:23:59;;;;;;;2.15;0.50;;;;;;;;;;5011170;28;20044;-60
2021/08/13 11:26:44;;;;;;;0.68;0.50;;;;;;;;;;5014182;28;20116;-61
2021/08/13 11:29:30;;;;;;;1.75;0.50;;;;;;;;;;5011362;28;20045;-61
2021/08/13 11:31:59;;;;;;;1.50;0.40;;;;;;;;;;5012217;28;20050;-61
2021/08/13 11:34:45;;;;;;;3.40;0.50;;;;;;;;;;5007580;28;20045;-61
2021/08/13 11:37:27;;;;;;;2.53;0.50;;;;;;;;;;5002102;28;20087;-60
2021/08/13 11:39:54;;;;;;;0.50;0.50;;;;;;;;;;5007680;28;20039;-61
2021/08/13 11:42:21;;;;;;;1.42;0.85;;;;;;;;;;5010476;28;20046;-60
2021/08/13 11:44:49;;;;;;;1.65;0.40;;;;;;;;;;5011378;28;20100;-60
2021/08/13 11:47:19;;;;;;;1.10;0.50;;;;;;;;;;5008625;28;20046;-60
2021/08/13 11:49:46;;;;;;;1.20;0.40;;;;;;;;;;4997891;28;20100;-60
2021/08/13 11:52:19;;;;;;;0.52;0.50;;;;;;;;;;5012184;28;20045;-60
2021/08/13 11:54:46;;;;;;;1.17;0.40;;;;;;;;;;5011081;28;20058;-61
2021/08/13 11:57:17;;;;;;;0.50;0.40;;;;;;;;;;5004720;28;20042;-61
2021/08/13 11:59:44;;;;;;;0.52;0.40;;;;;;;;;;5004204;28;20055;-60
2021/08/13 12:02:11;;;;;;;3.15;0.40;;;;;;;;;;5002811;28;20518;-60
2021/08/13 12:04:38;;;;;;;1.00;0.40;;;;;;;;;;5012489;28;20044;-61
2021/08/13 12:07:05;;;;;;;1.30;0.40;;;;;;;;;;5005928;28;20088;-61
2021/08/13 12:09:36;;;;;;;1.42;0.40;;;;;;;;;;5003067;28;20041;-61
2021/08/13 12:12:07;;;;;;;0.70;0.40;;;;;;;;;;5009283;28;20520;-61
2021/08/13 12:14:34;;;;;;;1.55;0.40;;;;;;;;;;5008571;28;20038;-61
2021/08/13 12:17:02;;;;;;;1.27;0.50;;;;;;;;;;5011096;28;20046;-61
2021/08/13 12:19:29;;;;;;;1.83;0.43;;;;;;;;;;5005073;28;20049;-61
2021/08/13 12:21:56;;;;;;;1.60;0.40;;;;;;;;;;5001075;28;20046;-61
2021/08/13 12:24:32;;;;;;;0.43;0.43;;;;;;;;;;5008439;28;20037;-61
2021/08/13 12:27:01;;;;;;;1.10;0.43;;;;;;;;;;5008697;28;20646;-59
2021/08/13 12:29:29;;;;;;;0.43;0.40;;;;;;;;;;4999566;28;20100;-42
2021/08/13 12:31:56;;;;;;;1.65;0.50;;;;;;;;;;5004690;28;20038;-42
2021/08/13 12:34:23;;;;;;;0.47;0.47;;;;;;;;;;5007008;28;20048;-42
2021/08/13 12:37:09;;;;;;;1.02;0.50;;;;;;;;;;5002907;28;20054;-41
2021/08/13 12:39:39;;;;;;;1.15;0.50;;;;;;;;;;5001003;28;20592;-42
2021/08/13 12:42:07;;;;;;;0.85;0.40;;;;;;;;;;5008296;28;20089;-41
2021/08/13 12:44:35;;;;;;;1.15;0.52;;;;;;;;;;5008589;28;20528;-41
2021/08/13 12:47:02;;;;;;;0.43;0.40;;;;;;;;;;5007540;28;20108;-42
2021/08/13 12:49:29;;;;;;;2.58;0.60;;;;;;;;;;5002869;28;20181;-43
2021/08/13 12:52:09;;;;;;;0.50;0.50;;;;;;;;;;5010045;28;20038;-42
2021/08/13 12:54:37;;;;;;;0.55;0.45;;;;;;;;;;4992559;28;20038;-41
2021/08/13 12:57:04;;;;;;;0.82;0.50;;;;;;;;;;5018166;28;20176;-41
2021/08/13 12:59:34;;;;;;;0.40;0.40;;;;;;;;;;5009966;28;20065;-43
2021/08/13 13:02:02;;;;;;;2.83;0.50;;;;;;;;;;5011435;28;20049;-43
2021/08/13 13:04:42;;;;;;;1.58;0.45;;;;;;;;;;5004540;28;20042;-41
2021/08/13 13:07:12;;;;;;;1.20;0.40;;;;;;;;;;4997419;28;20517;-44
2021/08/13 13:09:40;;;;;;;1.65;0.45;;;;;;;;;;4996359;28;20104;-43
2021/08/13 13:12:18;;;;;;;0.50;0.47;;;;;;;;;;5004896;28;20136;-43
2021/08/13 13:14:45;;;;;;;0.80;0.57;;;;;;;;;;4994341;28;20049;-41
2021/08/13 13:17:13;;;;;;;0.60;0.60;;;;;;;;;;5002028;28;20042;-41
2021/08/13 13:19:40;;;;;;;0.65;0.55;;;;;;;;;;4999903;28;20049;-42
2021/08/13 13:22:14;;;;;;;0.60;0.60;;;;;;;;;;4993965;28;20418;-40
2021/08/13 13:24:41;;;;;;;2.65;0.50;;;;;;;;;;5008370;28;20050;-41
2021/08/13 13:27:07;;;;;;;4.88;0.60;;;;;;;;;;5008973;28;20393;-41
2021/08/13 13:29:47;;;;;;;1.27;0.50;;;;;;;;;;5000131;28;20049;-41
2021/08/13 13:32:29;;;;;;;0.80;0.50;;;;;;;;;;5003900;28;20409;-40
2021/08/13 13:34:57;;;;;;;0.50;0.50;;;;;;;;;;5007292;28;20041;-42
2021/08/13 13:37:24;;;;;;;1.92;0.98;;;;;;;;;;5009386;28;20108;-44
2021/08/13 13:39:52;;;;;;;0.73;0.50;;;;;;;;;;5000495;28;20041;-41
2021/08/13 13:42:25;;;;;;;0.60;0.60;;;;;;;;;;5010248;28;20042;-41
2021/08/13 13:45:03;;;;;;;1.45;0.60;;;;;;;;;;5002257;28;20380;-42
2021/08/13 13:47:30;;;;;;;1.50;0.60;;;;;;;;;;4997464;28;20087;-43
2021/08/13 13:49:56;;;;;;;0.88;0.52;;;;;;;;;;4997799;28;20430;-42
2021/08/13 13:52:23;;;;;;;0.75;0.60;;;;;;;;;;5002622;28;20041;-41
2021/08/13 13:54:50;;;;;;;0.90;0.50;;;;;;;;;;4991682;28;20479;-43
2021/08/13 13:57:17;;;;;;;1.45;0.55;;;;;;;;;;5018170;28;20108;-43
2021/08/13 13:59:43;;;;;;;0.50;0.50;;;;;;;;;;4997336;28;20045;-41
2021/08/13 14:02:10;;;;;;;2.97;0.60;;;;;;;;;;4996114;28;20038;-41
2021/08/13 14:04:37;;;;;;;0.50;0.50;;;;;;;;;;5003878;28;20042;-42
2021/08/13 14:07:04;;;;;;;0.50;0.50;;;;;;;;;;5007265;28;20042;-42
2021/08/13 14:09:31;;;;;;;0.60;0.60;;;;;;;;;;5001260;28;20426;-42
2021/08/13 14:11:57;;;;;;;1.00;0.70;;;;;;;;;;4998542;28;20099;-43
2021/08/13 14:14:24;;;;;;;0.50;0.50;;;;;;;;;;5008758;28;20045;-42
2021/08/13 14:16:51;;;;;;;3.58;0.63;;;;;;;;;;5006719;28;20041;-42
2021/08/13 14:19:18;;;;;;;0.50;0.50;;;;;;;;;;5006768;28;20045;-43
2021/08/13 14:21:45;;;;;;;1.63;0.75;;;;;;;;;;5001629;28;20077;-41
2021/08/13 14:24:11;;;;;;;0.60;0.50;;;;;;;;;;4998937;28;20484;-41
2021/08/13 14:26:38;;;;;;;5.35;0.75;;;;;;;;;;4994133;28;20097;-45
2021/08/13 14:29:05;;;;;;;0.57;0.57;;;;;;;;;;5006330;28;20038;-42
2021/08/13 14:31:32;;;;;;;0.50;0.50;;;;;;;;;;5008392;28;20042;-43
2021/08/13 14:33:59;;;;;;;2.10;0.65;;;;;;;;;;5000219;28;20137;-43
2021/08/13 14:36:25;;;;;;;0.82;0.60;;;;;;;;;;5001057;28;20050;-43
2021/08/13 14:38:52;;;;;;;2.03;0.68;;;;;;;;;;4992437;28;20454;-42
2021/08/13 14:41:19;;;;;;;1.15;0.55;;;;;;;;;;5003762;28;20042;-42
2021/08/13 14:43:46;;;;;;;1.42;0.50;;;;;;;;;;4993483;28;20046;-41
2021/08/13 14:46:13;;;;;;;1.00;0.68;;;;;;;;;;5009175;28;20425;-42
2021/08/13 14:48:40;;;;;;;0.60;0.60;;;;;;;;;;5006999;28;20075;-42
2021/08/13 14:51:07;;;;;;;0.63;0.55;;;;;;;;;;4994498;28;20073;-42